Itapira, Brazil
Current Conditions -  °F | °C
As of 3:00 PM on Sunday 23 Nov 2014 (Local Time) from SBKP Reporting Station
Scattered Clouds Scattered Clouds  
Wind Chill: 81°   Ceiling: Unl
Heat Index: 82°   Visibility: 6mi
Dew Point: 63°   Wind: 7mph
Humidity: 54%   Direction: 260°W
Pressure: 29.97"   Gusts: NA
Location:  22.44°S, 46.82°W
Report Text: SBKP 231700Z 26006KT 9999 SCT035 27/17 Q1015
Loading
Personal Weather Stations






























Interactive Weather Map New forecast layout! Learn more

10-Day Weather Forecast

Advertisements
Track Severe Weather on mobile